Time;durP1;ratioP1;P1;durP2;ratioP2;P2;SDS_P1;SDS_P2;PMS_P1;PMS_P2;Temp;Humidity;BMP_temperature;BMP_pressure;BME280_temperature;BME280_humidity;BME280_pressure;Samples;Min_cycle;Max_cycle;Signal;HPM_P1;HPM_P2
2023/08/01 00:00:49;;;;;;;8.13;5.15;;;;;;;-141.23;100.00;62281.09;5054113;28;20053;-76
2023/08/01 00:03:14;;;;;;;8.93;4.82;;;;;;;-141.23;100.00;62281.09;5053130;28;20045;-76
2023/08/01 00:05:44;;;;;;;6.00;4.70;;;;;;;-141.23;100.00;62281.09;5053348;28;20052;-76
2023/08/01 00:08:12;;;;;;;10.48;4.97;;;;;;;-141.23;100.00;62281.09;5054889;28;20110;-76
2023/08/01 00:10:39;;;;;;;10.40;5.50;;;;;;;-141.23;100.00;62281.09;5021133;28;20041;-76
2023/08/01 00:13:05;;;;;;;8.95;4.68;;;;;;;-141.23;100.00;62281.09;5054054;28;20049;-75
2023/08/01 00:15:31;;;;;;;13.10;5.65;;;;;;;-141.23;100.00;62281.09;5037124;28;20044;-76
2023/08/01 00:17:57;;;;;;;13.02;5.30;;;;;;;-141.23;100.00;62281.09;5052769;28;20048;-77
2023/08/01 00:20:23;;;;;;;12.23;5.68;;;;;;;-141.23;100.00;62281.09;5052941;28;20041;-77
2023/08/01 00:22:49;;;;;;;13.60;6.05;;;;;;;-141.23;100.00;62281.09;5019854;28;20494;-77
2023/08/01 00:25:15;;;;;;;13.35;6.22;;;;;;;-141.23;100.00;62281.09;5054517;28;20037;-77
2023/08/01 00:27:40;;;;;;;17.98;6.15;;;;;;;-141.23;100.00;62281.09;5037618;28;20083;-77
2023/08/01 00:30:07;;;;;;;12.85;6.28;;;;;;;-141.23;100.00;62281.09;5037600;28;20037;-76
2023/08/01 00:32:35;;;;;;;11.88;6.30;;;;;;;-141.23;100.00;62281.09;5038220;28;20045;-76
2023/08/01 00:35:01;;;;;;;12.75;7.00;;;;;;;-141.23;100.00;62281.09;5054367;28;20533;-76
2023/08/01 00:37:26;;;;;;;17.13;8.38;;;;;;;-141.23;100.00;62281.09;5052998;28;20037;-76
2023/08/01 00:39:52;;;;;;;13.82;7.28;;;;;;;-141.23;100.00;62281.09;5052594;28;20053;-77
2023/08/01 00:42:18;;;;;;;14.90;7.60;;;;;;;-141.23;100.00;62281.09;5052402;28;20487;-76
2023/08/01 00:44:43;;;;;;;12.20;7.40;;;;;;;-141.23;100.00;62281.09;5052178;28;20151;-76
2023/08/01 00:47:10;;;;;;;12.18;6.85;;;;;;;-141.23;100.00;62281.09;5052946;28;20472;-76
2023/08/01 00:49:36;;;;;;;15.63;7.40;;;;;;;-141.23;100.00;62281.09;5052152;28;20099;-76
2023/08/01 00:52:02;;;;;;;16.15;7.20;;;;;;;-141.23;100.00;62281.09;5019054;28;20132;-77
2023/08/01 00:54:34;;;;;;;20.20;7.80;;;;;;;-141.23;100.00;62281.09;5019119;28;20446;-76
2023/08/01 00:57:00;;;;;;;11.98;7.50;;;;;;;-141.23;100.00;62281.09;5035394;28;20045;-77
2023/08/01 00:59:26;;;;;;;10.90;6.75;;;;;;;-141.23;100.00;62281.09;5018955;28;20094;-77
2023/08/01 01:01:52;;;;;;;12.43;7.32;;;;;;;-141.23;100.00;62281.09;5035660;28;20505;-76
2023/08/01 01:04:18;;;;;;;17.33;7.13;;;;;;;-141.23;100.00;62281.09;5052629;28;20044;-76
2023/08/01 01:07:07;;;;;;;10.57;6.32;;;;;;;-141.23;100.00;62281.09;5015235;28;20539;-77
2023/08/01 01:09:33;;;;;;;13.55;6.57;;;;;;;-141.23;100.00;62281.09;5013911;28;20482;-77
2023/08/01 01:11:59;;;;;;;14.23;6.50;;;;;;;-141.23;100.00;62281.09;5015709;28;20088;-76
2023/08/01 01:14:29;;;;;;;12.52;5.70;;;;;;;-141.23;100.00;62281.09;5014697;28;20080;-76
2023/08/01 01:16:55;;;;;;;14.93;6.47;;;;;;;-141.23;100.00;62281.09;4982902;28;20132;-76
2023/08/01 01:19:22;;;;;;;11.57;6.53;;;;;;;-141.23;100.00;62281.09;4999420;28;20049;-76
2023/08/01 01:21:49;;;;;;;8.93;5.60;;;;;;;-141.23;100.00;62281.09;5014846;28;20056;-76
2023/08/01 01:24:16;;;;;;;9.60;6.28;;;;;;;-141.23;100.00;62281.09;5014157;28;20140;-76
2023/08/01 01:26:42;;;;;;;13.73;5.80;;;;;;;-141.23;100.00;62281.09;4998139;28;20050;-76
2023/08/01 01:29:09;;;;;;;9.68;6.22;;;;;;;-141.23;100.00;62281.09;5015354;28;20431;-77
2023/08/01 01:31:35;;;;;;;12.35;6.35;;;;;;;-141.23;100.00;62281.09;5036362;28;20053;-76
2023/08/01 01:34:03;;;;;;;15.27;6.35;;;;;;;-141.23;100.00;62281.09;4991361;28;20041;-76
2023/08/01 01:36:30;;;;;;;14.20;6.57;;;;;;;-141.23;100.00;62281.09;5035451;28;20500;-76
2023/08/01 01:38:57;;;;;;;15.55;7.30;;;;;;;-141.23;100.00;62281.09;5055435;28;20056;-76
2023/08/01 01:41:22;;;;;;;12.70;6.55;;;;;;;-141.23;100.00;62281.09;5056577;28;20045;-75
2023/08/01 01:43:48;;;;;;;10.32;6.03;;;;;;;-141.23;100.00;62281.09;5056258;28;20387;-76
2023/08/01 01:46:15;;;;;;;14.95;8.27;;;;;;;-141.23;100.00;62281.09;5006169;28;20127;-76
2023/08/01 01:48:42;;;;;;;25.38;12.82;;;;;;;-141.23;100.00;62281.09;5038732;28;20186;-75
2023/08/01 01:51:08;;;;;;;32.80;14.85;;;;;;;-141.23;100.00;62281.09;5055393;28;20052;-77
2023/08/01 01:53:34;;;;;;;38.50;17.65;;;;;;;-141.23;100.00;62281.09;5055174;28;20132;-76
2023/08/01 01:56:01;;;;;;;35.50;16.90;;;;;;;-141.23;100.00;62281.09;5055046;28;20051;-76
2023/08/01 01:58:26;;;;;;;39.80;19.50;;;;;;;-141.23;100.00;62281.09;5038295;28;20041;-75
2023/08/01 02:00:52;;;;;;;34.00;18.20;;;;;;;-141.23;100.00;62281.09;5038447;28;20060;-76
2023/08/01 02:03:18;;;;;;;24.00;12.73;;;;;;;-141.23;100.00;62281.09;5038398;28;20045;-76
2023/08/01 02:05:44;;;;;;;19.40;10.40;;;;;;;-141.23;100.00;62281.09;5038330;28;20041;-75
2023/08/01 02:08:11;;;;;;;19.33;10.15;;;;;;;-141.23;100.00;62281.09;5038442;28;20041;-71
2023/08/01 02:10:36;;;;;;;20.00;9.77;;;;;;;-141.23;100.00;62281.09;5054932;28;20067;-75
2023/08/01 02:13:03;;;;;;;15.40;9.18;;;;;;;-141.23;100.00;62281.09;5038261;28;20060;-76
2023/08/01 02:15:29;;;;;;;20.92;10.15;;;;;;;-141.23;100.00;62281.09;5038228;28;20467;-76
2023/08/01 02:17:56;;;;;;;19.10;9.90;;;;;;;-141.23;100.00;62281.09;5038521;28;20048;-75
2023/08/01 02:20:22;;;;;;;16.40;8.63;;;;;;;-141.23;100.00;62281.09;5054687;28;20475;-76
2023/08/01 02:22:48;;;;;;;15.00;8.00;;;;;;;-141.23;100.00;62281.09;5054685;28;20075;-76
2023/08/01 02:25:14;;;;;;;13.27;8.27;;;;;;;-141.23;100.00;62281.09;5037858;28;20463;-76
2023/08/01 02:27:40;;;;;;;15.30;7.22;;;;;;;-141.23;100.00;62281.09;5054546;28;20048;-75
2023/08/01 02:30:06;;;;;;;12.07;7.65;;;;;;;-141.23;100.00;62281.09;5054818;28;20045;-76
2023/08/01 02:32:36;;;;;;;12.77;7.03;;;;;;;-141.23;100.00;62281.09;5023060;28;20047;-76
2023/08/01 02:35:03;;;;;;;14.35;8.13;;;;;;;-141.23;100.00;62281.09;5055277;28;20049;-76
2023/08/01 02:37:33;;;;;;;12.73;7.03;;;;;;;-141.23;100.00;62281.09;5055970;28;20044;-76
2023/08/01 02:40:02;;;;;;;11.20;7.47;;;;;;;-141.23;100.00;62281.09;5057318;28;20041;-75
2023/08/01 02:42:30;;;;;;;16.83;7.20;;;;;;;-141.23;100.00;62281.09;5023139;28;20391;-76
2023/08/01 02:44:56;;;;;;;13.52;6.90;;;;;;;-141.23;100.00;62281.09;5036433;28;20041;-76
2023/08/01 02:47:22;;;;;;;18.17;7.07;;;;;;;-141.23;100.00;62281.09;5053869;28;20063;-76
2023/08/01 02:49:48;;;;;;;15.30;7.15;;;;;;;-141.23;100.00;62281.09;5020698;28;20049;-77
2023/08/01 02:52:14;;;;;;;18.63;7.68;;;;;;;-141.23;100.00;62281.09;5054053;28;20045;-74
2023/08/01 02:54:40;;;;;;;15.95;8.00;;;;;;;-141.23;100.00;62281.09;5021437;28;20171;-75
2023/08/01 02:57:06;;;;;;;20.02;7.97;;;;;;;-141.23;100.00;62281.09;5037446;28;20390;-76
2023/08/01 02:59:32;;;;;;;15.27;6.43;;;;;;;-141.23;100.00;62281.09;5054334;28;20429;-76
2023/08/01 03:01:59;;;;;;;13.23;6.72;;;;;;;-141.23;100.00;62281.09;5054289;28;20072;-76
2023/08/01 03:04:25;;;;;;;16.13;7.93;;;;;;;-141.23;100.00;62281.09;5055305;28;20037;-76
2023/08/01 03:06:52;;;;;;;14.82;8.18;;;;;;;-141.23;100.00;62281.09;5037651;28;20422;-76
2023/08/01 03:09:18;;;;;;;24.42;11.10;;;;;;;-141.23;100.00;62281.09;5053946;28;20076;-76
2023/08/01 03:11:44;;;;;;;17.77;10.15;;;;;;;-141.23;100.00;62281.09;5037646;28;20562;-76
2023/08/01 03:14:09;;;;;;;20.80;11.25;;;;;;;-141.23;100.00;62281.09;5054264;28;20108;-76
2023/08/01 03:16:35;;;;;;;17.80;10.18;;;;;;;-141.23;100.00;62281.09;5055236;28;20051;-77
2023/08/01 03:19:04;;;;;;;28.13;12.05;;;;;;;-141.23;100.00;62281.09;5054621;28;20079;-76
2023/08/01 03:21:32;;;;;;;27.23;13.32;;;;;;;-141.23;100.00;62281.09;5021031;28;20541;-76
2023/08/01 03:23:58;;;;;;;25.55;14.00;;;;;;;-141.23;100.00;62281.09;5054386;28;20057;-76
2023/08/01 03:26:24;;;;;;;31.98;16.30;;;;;;;-141.23;100.00;62281.09;5037137;28;20059;-76
2023/08/01 03:28:49;;;;;;;26.83;14.43;;;;;;;-141.23;100.00;62281.09;5053446;28;20067;-75
2023/08/01 03:31:15;;;;;;;23.63;13.85;;;;;;;-141.23;100.00;62281.09;5037267;28;20496;-76
2023/08/01 03:33:41;;;;;;;27.50;14.68;;;;;;;-141.23;100.00;62281.09;5054242;28;20040;-76
2023/08/01 03:36:08;;;;;;;26.33;14.68;;;;;;;-141.23;100.00;62281.09;5053088;28;20040;-77
2023/08/01 03:38:33;;;;;;;28.23;14.25;;;;;;;-141.23;100.00;62281.09;5055725;28;20123;-76
2023/08/01 03:40:59;;;;;;;27.13;11.90;;;;;;;-141.23;100.00;62281.09;5055461;28;20049;-76
2023/08/01 03:43:25;;;;;;;22.58;12.55;;;;;;;-141.23;100.00;62281.09;5054676;28;20114;-75
2023/08/01 03:45:51;;;;;;;25.77;13.20;;;;;;;-141.23;100.00;62281.09;5020665;28;20040;-75
2023/08/01 03:48:17;;;;;;;28.38;14.35;;;;;;;-141.23;100.00;62281.09;5036406;28;20048;-75
2023/08/01 03:50:43;;;;;;;27.83;13.73;;;;;;;-141.23;100.00;62281.09;5053683;28;20055;-75
2023/08/01 03:53:10;;;;;;;30.70;14.40;;;;;;;-141.23;100.00;62281.09;5053563;28;20045;-76
2023/08/01 03:55:36;;;;;;;22.27;11.93;;;;;;;-141.23;100.00;62281.09;5036074;28;20084;-76
2023/08/01 03:58:03;;;;;;;17.83;10.25;;;;;;;-141.23;100.00;62281.09;5036165;28;20114;-75
2023/08/01 04:00:32;;;;;;;15.43;9.57;;;;;;;-141.23;100.00;62281.09;5053571;28;20123;-75
2023/08/01 04:02:59;;;;;;;14.10;8.75;;;;;;;-141.23;100.00;62281.09;5019888;28;20053;-76
2023/08/01 04:05:25;;;;;;;26.13;10.88;;;;;;;-141.23;100.00;62281.09;5053509;28;20037;-77
2023/08/01 04:07:54;;;;;;;16.92;9.80;;;;;;;-141.23;100.00;62281.09;5052560;28;20052;-76
2023/08/01 04:10:21;;;;;;;23.95;12.20;;;;;;;-141.23;100.00;62281.09;5036655;28;20041;-75
2023/08/01 04:12:48;;;;;;;29.55;11.75;;;;;;;-141.23;100.00;62281.09;5036259;28;20072;-76
2023/08/01 04:15:13;;;;;;;23.40;9.98;;;;;;;-141.23;100.00;62281.09;5055187;28;20467;-75
2023/08/01 04:17:39;;;;;;;14.38;9.23;;;;;;;-141.23;100.00;62281.09;5037568;28;20102;-76
2023/08/01 04:20:06;;;;;;;14.02;7.65;;;;;;;-141.23;100.00;62281.09;5053802;28;20041;-76
2023/08/01 04:22:32;;;;;;;18.55;7.50;;;;;;;-141.23;100.00;62281.09;5054044;28;20048;-76
2023/08/01 04:24:58;;;;;;;7.95;5.05;;;;;;;-141.23;100.00;62281.09;5053372;28;20056;-76
2023/08/01 04:27:23;;;;;;;11.50;5.68;;;;;;;-141.23;100.00;62281.09;5052711;28;20379;-77
2023/08/01 04:29:49;;;;;;;15.27;4.90;;;;;;;-141.23;100.00;62281.09;5035944;28;20098;-75
2023/08/01 04:32:15;;;;;;;8.55;4.10;;;;;;;-141.23;100.00;62281.09;5035979;28;20082;-76
2023/08/01 04:34:41;;;;;;;8.60;5.28;;;;;;;-141.23;100.00;62281.09;5002653;28;20037;-77
2023/08/01 04:37:07;;;;;;;8.57;5.25;;;;;;;-141.23;100.00;62281.09;5019241;28;20407;-76
2023/08/01 04:39:33;;;;;;;11.38;4.25;;;;;;;-141.23;100.00;62281.09;5052871;28;20041;-76
2023/08/01 04:41:59;;;;;;;11.80;4.10;;;;;;;-141.23;100.00;62281.09;5035244;28;20479;-75
2023/08/01 04:44:25;;;;;;;13.23;4.63;;;;;;;-141.23;100.00;62281.09;5037387;28;20055;-76
2023/08/01 04:46:51;;;;;;;9.13;4.32;;;;;;;-141.23;100.00;62281.09;5054215;28;20048;-76
2023/08/01 04:49:17;;;;;;;18.05;9.13;;;;;;;-141.23;100.00;62281.09;5071074;28;20465;-75
2023/08/01 04:51:43;;;;;;;15.05;4.35;;;;;;;-141.23;100.00;62281.09;5053953;28;20045;-75
2023/08/01 04:54:08;;;;;;;11.45;6.25;;;;;;;-141.23;100.00;62281.09;5070717;28;20052;-77
2023/08/01 04:56:34;;;;;;;16.42;6.13;;;;;;;-141.23;100.00;62281.09;5053927;28;20052;-76
2023/08/01 04:59:01;;;;;;;18.65;6.78;;;;;;;-141.23;100.00;62281.09;5020752;28;20549;-76
2023/08/01 05:01:27;;;;;;;17.20;6.95;;;;;;;-141.23;100.00;62281.09;5037300;28;20083;-76
2023/08/01 05:03:53;;;;;;;10.60;6.32;;;;;;;-141.23;100.00;62281.09;5020721;28;20122;-75
2023/08/01 05:06:20;;;;;;;14.30;6.13;;;;;;;-141.23;100.00;62281.09;5070907;28;20049;-76
2023/08/01 05:08:45;;;;;;;9.10;3.90;;;;;;;-141.23;100.00;62281.09;5053144;28;20044;-76
2023/08/01 05:11:11;;;;;;;7.97;4.47;;;;;;;-141.23;100.00;62281.09;5053842;28;20115;-76
2023/08/01 05:13:37;;;;;;;17.52;5.18;;;;;;;-141.23;100.00;62281.09;5020646;28;20048;-76
2023/08/01 05:16:03;;;;;;;16.10;5.55;;;;;;;-141.23;100.00;62281.09;5056346;28;20052;-76
2023/08/01 05:18:28;;;;;;;20.55;6.03;;;;;;;-141.23;100.00;62281.09;5052127;28;20075;-76
2023/08/01 05:20:54;;;;;;;20.08;5.88;;;;;;;-141.23;100.00;62281.09;5034363;28;20471;-76
2023/08/01 05:23:22;;;;;;;19.13;5.60;;;;;;;-141.23;100.00;62281.09;5018250;28;20060;-75
2023/08/01 05:25:47;;;;;;;22.33;6.28;;;;;;;-141.23;100.00;62281.09;5051522;28;20492;-76
2023/08/01 05:28:14;;;;;;;22.30;4.63;;;;;;;-141.23;100.00;62281.09;5052252;28;20052;-76
2023/08/01 05:30:40;;;;;;;12.02;4.45;;;;;;;-141.23;100.00;62281.09;5052288;28;20044;-76
2023/08/01 05:33:07;;;;;;;16.10;4.55;;;;;;;-141.23;100.00;62281.09;5034679;28;20052;-76
2023/08/01 05:35:32;;;;;;;13.95;5.22;;;;;;;-141.23;100.00;62281.09;5018042;28;20123;-76
2023/08/01 05:37:59;;;;;;;14.98;4.85;;;;;;;-141.23;100.00;62281.09;5050761;28;20080;-75
2023/08/01 05:40:25;;;;;;;15.55;5.25;;;;;;;-141.23;100.00;62281.09;5051967;28;20197;-73
2023/08/01 05:42:53;;;;;;;17.45;5.68;;;;;;;-141.23;100.00;62281.09;5051355;28;20383;-76
2023/08/01 05:45:18;;;;;;;18.52;6.13;;;;;;;-141.23;100.00;62281.09;5036809;28;20057;-75
2023/08/01 05:47:45;;;;;;;15.75;5.63;;;;;;;-141.23;100.00;62281.09;5054393;28;20045;-75
2023/08/01 05:50:10;;;;;;;13.45;4.78;;;;;;;-141.23;100.00;62281.09;5051471;28;20079;-76
2023/08/01 05:52:36;;;;;;;18.08;4.70;;;;;;;-141.23;100.00;62281.09;5051128;28;20076;-76
2023/08/01 05:55:02;;;;;;;7.70;3.22;;;;;;;-141.23;100.00;62281.09;5052068;28;20040;-76
2023/08/01 05:57:31;;;;;;;5.82;3.47;;;;;;;-141.23;100.00;62281.09;5051667;28;20118;-75
2023/08/01 05:59:57;;;;;;;13.82;3.97;;;;;;;-141.23;100.00;62281.09;5050819;28;20033;-75
2023/08/01 06:02:24;;;;;;;6.07;3.67;;;;;;;-141.23;100.00;62281.09;5034653;28;20049;-76
2023/08/01 06:04:51;;;;;;;12.57;4.53;;;;;;;-141.23;100.00;62281.09;5018278;28;20481;-76
2023/08/01 06:07:22;;;;;;;6.90;4.03;;;;;;;-141.23;100.00;62281.09;5017751;28;20127;-76
2023/08/01 06:09:52;;;;;;;12.10;4.15;;;;;;;-141.23;100.00;62281.09;5050970;28;20490;-77
2023/08/01 06:12:20;;;;;;;16.00;4.93;;;;;;;-141.23;100.00;62281.09;5051667;28;20344;-76
2023/08/01 06:14:46;;;;;;;12.88;4.50;;;;;;;-141.23;100.00;62281.09;5033934;28;20048;-76
2023/08/01 06:17:12;;;;;;;9.63;3.70;;;;;;;-141.23;100.00;62281.09;5034062;28;20049;-76
2023/08/01 06:19:38;;;;;;;11.07;4.70;;;;;;;-141.23;100.00;62281.09;5052210;28;20094;-76
2023/08/01 06:22:04;;;;;;;14.77;4.32;;;;;;;-141.23;100.00;62281.09;5055444;28;20045;-77
2023/08/01 06:24:30;;;;;;;6.38;4.00;;;;;;;-141.23;100.00;62281.09;5037780;28;20391;-76
2023/08/01 06:26:55;;;;;;;7.50;3.40;;;;;;;-141.23;100.00;62281.09;5055308;28;20048;-72
2023/08/01 06:29:21;;;;;;;8.07;4.10;;;;;;;-141.23;100.00;62281.09;5037865;28;20080;-76
2023/08/01 06:31:47;;;;;;;4.75;2.90;;;;;;;-141.23;100.00;62281.09;5054950;28;20059;-76
2023/08/01 06:34:13;;;;;;;7.28;3.03;;;;;;;-141.23;100.00;62281.09;5037612;28;20127;-77
2023/08/01 06:36:40;;;;;;;17.95;3.33;;;;;;;-141.23;100.00;62281.09;5054186;28;20145;-76
2023/08/01 06:39:05;;;;;;;10.23;3.20;;;;;;;-141.23;100.00;62281.09;5005102;28;20033;-77
2023/08/01 06:41:32;;;;;;;7.22;3.42;;;;;;;-141.23;100.00;62281.09;5021306;28;20048;-75
2023/08/01 06:43:57;;;;;;;12.50;4.07;;;;;;;-141.23;100.00;62281.09;5036991;28;20044;-77
2023/08/01 06:46:23;;;;;;;8.93;3.00;;;;;;;-141.23;100.00;62281.09;5037893;28;20048;-77
2023/08/01 06:48:49;;;;;;;7.05;3.15;;;;;;;-141.23;100.00;62281.09;5055066;28;20057;-77
2023/08/01 06:51:15;;;;;;;4.63;3.03;;;;;;;-141.23;100.00;62281.09;5055306;28;20047;-77
2023/08/01 06:53:41;;;;;;;15.30;3.60;;;;;;;-141.23;100.00;62281.09;5054120;28;20080;-77
2023/08/01 06:56:07;;;;;;;10.32;3.45;;;;;;;-141.23;100.00;62281.09;5054161;28;20146;-77
2023/08/01 06:58:33;;;;;;;8.43;3.20;;;;;;;-141.23;100.00;62281.09;5037195;28;20387;-77
2023/08/01 07:00:58;;;;;;;5.85;3.40;;;;;;;-141.23;100.00;62281.09;5037403;28;20036;-76
2023/08/01 07:03:24;;;;;;;8.02;3.10;;;;;;;-141.23;100.00;62281.09;5055282;28;20103;-78
2023/08/01 07:05:51;;;;;;;12.73;3.30;;;;;;;-141.23;100.00;62281.09;5055595;28;20053;-76
2023/08/01 07:08:16;;;;;;;7.32;3.00;;;;;;;-141.23;100.00;62281.09;5054251;28;20132;-77
2023/08/01 07:10:42;;;;;;;8.25;3.15;;;;;;;-141.23;100.00;62281.09;5053797;28;20131;-77
2023/08/01 07:13:08;;;;;;;7.75;3.00;;;;;;;-141.23;100.00;62281.09;5020842;28;20048;-77
2023/08/01 07:15:34;;;;;;;15.90;2.80;;;;;;;-141.23;100.00;62281.09;5054737;28;20036;-78
2023/08/01 07:18:00;;;;;;;7.20;2.70;;;;;;;-141.23;100.00;62281.09;5037512;28;20055;-77
2023/08/01 07:20:26;;;;;;;5.80;3.20;;;;;;;-141.23;100.00;62281.09;5054348;28;20379;-76
2023/08/01 07:22:51;;;;;;;4.90;2.42;;;;;;;-141.23;100.00;62281.09;5036690;28;20148;-78
2023/08/01 07:25:19;;;;;;;6.05;2.80;;;;;;;-141.23;100.00;62281.09;5053244;28;20037;-76
2023/08/01 07:27:45;;;;;;;12.32;3.13;;;;;;;-141.23;100.00;62281.09;5054480;28;20083;-78
2023/08/01 07:30:12;;;;;;;5.18;2.85;;;;;;;-141.23;100.00;62281.09;5053764;28;20073;-77
2023/08/01 07:32:39;;;;;;;8.00;2.42;;;;;;;-141.23;100.00;62281.09;5019944;28;20400;-78
2023/08/01 07:35:06;;;;;;;7.30;2.50;;;;;;;-141.23;100.00;62281.09;5053813;28;20048;-77
2023/08/01 07:37:37;;;;;;;8.18;2.40;;;;;;;-141.23;100.00;62281.09;5036196;28;20349;-76
2023/08/01 07:40:07;;;;;;;7.60;2.30;;;;;;;-141.23;100.00;62281.09;5003998;28;20052;-74
2023/08/01 07:42:33;;;;;;;;;;;;;;;-141.23;100.00;62281.09;5003898;28;20155;-77
2023/08/01 07:44:58;;;;;;;9.20;2.70;;;;;;;-141.23;100.00;62281.09;5052791;28;20414;-77
2023/08/01 07:47:24;;;;;;;9.55;2.58;;;;;;;-141.23;100.00;62281.09;4999115;28;20391;-77
2023/08/01 07:49:52;;;;;;;22.92;3.33;;;;;;;-141.23;100.00;62281.09;5015196;28;20152;-77
2023/08/01 07:52:17;;;;;;;16.42;3.30;;;;;;;-141.23;100.00;62281.09;5031541;28;20136;-76
2023/08/01 07:54:43;;;;;;;8.88;2.88;;;;;;;-141.23;100.00;62281.09;5015834;28;20559;-76
2023/08/01 07:57:09;;;;;;;13.38;3.10;;;;;;;-141.23;100.00;62281.09;5017635;28;20085;-76
2023/08/01 07:59:35;;;;;;;13.38;3.20;;;;;;;-141.23;100.00;62281.09;4999065;28;20183;-76
2023/08/01 08:02:00;;;;;;;10.88;3.25;;;;;;;-141.23;100.00;62281.09;4983328;28;20515;-71
2023/08/01 08:04:27;;;;;;;17.42;3.33;;;;;;;-141.23;100.00;62281.09;5031871;28;20045;-77
2023/08/01 08:06:54;;;;;;;9.52;3.20;;;;;;;-141.23;100.00;62281.09;5015186;28;20056;-76
2023/08/01 08:09:22;;;;;;;10.70;2.50;;;;;;;-141.23;100.00;62281.09;5014557;28;20038;-76
2023/08/01 08:11:50;;;;;;;9.27;2.87;;;;;;;-141.23;100.00;62281.09;5014848;28;20222;-76
2023/08/01 08:14:17;;;;;;;13.45;2.60;;;;;;;-141.23;100.00;62281.09;5014267;28;20287;-77
2023/08/01 08:16:43;;;;;;;12.40;3.10;;;;;;;-141.23;100.00;62281.09;5014789;28;20044;-76
2023/08/01 08:19:09;;;;;;;10.35;2.50;;;;;;;-141.23;100.00;62281.09;5044883;28;20056;-76
2023/08/01 08:21:35;;;;;;;8.98;2.72;;;;;;;-141.23;100.00;62281.09;5035063;28;20163;-76
2023/08/01 08:24:01;;;;;;;11.77;2.28;;;;;;;-141.23;100.00;62281.09;5051872;28;20055;-77
2023/08/01 08:26:27;;;;;;;5.97;2.00;;;;;;;-141.23;100.00;62281.09;5035348;28;20045;-78
2023/08/01 08:28:52;;;;;;;8.68;2.53;;;;;;;-141.23;100.00;62281.09;5052644;28;20037;-77
2023/08/01 08:31:18;;;;;;;7.70;2.20;;;;;;;-141.23;100.00;62281.09;5051846;28;20052;-77
2023/08/01 08:33:44;;;;;;;4.60;1.88;;;;;;;-141.23;100.00;62281.09;5018525;28;20040;-77
2023/08/01 08:36:10;;;;;;;5.80;1.70;;;;;;;-141.23;100.00;62281.09;5035101;28;20426;-78
2023/08/01 08:38:35;;;;;;;5.57;2.03;;;;;;;-141.23;100.00;62281.09;5051640;28;20051;-77
2023/08/01 08:41:19;;;;;;;7.32;2.10;;;;;;;-141.23;100.00;62281.09;5035193;28;20135;-78
2023/08/01 08:43:47;;;;;;;5.88;2.17;;;;;;;-141.23;100.00;62281.09;5050738;28;20103;-77
2023/08/01 08:46:15;;;;;;;8.00;1.95;;;;;;;-141.23;100.00;62281.09;5051198;28;20057;-76
2023/08/01 08:48:44;;;;;;;5.47;1.92;;;;;;;-141.23;100.00;62281.09;5052489;28;20040;-77
2023/08/01 08:51:11;;;;;;;3.45;1.98;;;;;;;-141.23;100.00;62281.09;5002493;28;20056;-78
2023/08/01 08:53:37;;;;;;;6.85;2.03;;;;;;;-141.23;100.00;62281.09;5051213;28;20110;-77
2023/08/01 08:56:04;;;;;;;5.00;1.67;;;;;;;-141.23;100.00;62281.09;5051688;28;20036;-77
2023/08/01 08:58:31;;;;;;;8.60;2.00;;;;;;;-141.23;100.00;62281.09;5018870;28;20041;-78
2023/08/01 09:01:01;;;;;;;4.97;1.60;;;;;;;-141.23;100.00;62281.09;5034794;28;20079;-78
2023/08/01 09:03:28;;;;;;;5.82;1.70;;;;;;;-141.23;100.00;62281.09;5054198;28;20048;-77
2023/08/01 09:06:03;;;;;;;5.28;2.03;;;;;;;-141.23;100.00;62281.09;5071647;28;20049;-78
2023/08/01 09:08:32;;;;;;;6.85;1.65;;;;;;;-141.23;100.00;62281.09;5055027;28;20056;-79
2023/08/01 09:10:58;;;;;;;8.70;1.85;;;;;;;-141.23;100.00;62281.09;5037488;28;20186;-78
2023/08/01 09:13:24;;;;;;;10.55;1.75;;;;;;;-141.23;100.00;62281.09;5053286;28;20147;-77
2023/08/01 09:15:50;;;;;;;11.48;2.30;;;;;;;-141.23;100.00;62281.09;5070029;28;20044;-78
2023/08/01 09:18:16;;;;;;;17.17;2.05;;;;;;;-141.23;100.00;62281.09;5053572;28;20055;-79
2023/08/01 09:20:44;;;;;;;11.25;1.80;;;;;;;-141.23;100.00;62281.09;5036908;28;20048;-78
2023/08/01 09:23:13;;;;;;;5.85;1.65;;;;;;;-141.23;100.00;62281.09;5036392;28;20566;-79
2023/08/01 09:25:41;;;;;;;7.57;1.60;;;;;;;-141.23;100.00;62281.09;5020775;28;20041;-78
2023/08/01 09:28:21;;;;;;;13.73;1.80;;;;;;;-141.23;100.00;62281.09;5053299;28;20052;-77
2023/08/01 09:30:49;;;;;;;16.02;2.33;;;;;;;-141.23;100.00;62281.09;5020355;28;20044;-78
2023/08/01 09:33:16;;;;;;;10.82;2.22;;;;;;;-141.23;100.00;62281.09;5053469;28;20390;-78
2023/08/01 09:35:44;;;;;;;22.33;2.65;;;;;;;-141.23;100.00;62281.09;5001946;28;20040;-77
2023/08/01 09:38:12;;;;;;;33.47;3.60;;;;;;;-141.23;100.00;62281.09;5018524;28;20043;-78
2023/08/01 09:40:41;;;;;;;14.73;2.30;;;;;;;-141.23;100.00;62281.09;5018413;28;20053;-78
2023/08/01 09:43:09;;;;;;;6.10;1.83;;;;;;;-141.23;100.00;62281.09;5051320;28;20344;-77
2023/08/01 09:45:35;;;;;;;9.68;2.13;;;;;;;-141.23;100.00;62281.09;5017854;28;20132;-75
2023/08/01 09:48:01;;;;;;;6.68;1.95;;;;;;;-141.23;100.00;62281.09;5051744;28;20067;-78
2023/08/01 09:50:28;;;;;;;5.93;2.00;;;;;;;-141.23;100.00;62281.09;5034566;28;20040;-78
2023/08/01 09:52:54;;;;;;;9.68;2.33;;;;;;;-141.23;100.00;62281.09;5051673;28;20051;-77
2023/08/01 09:55:40;;;;;;;6.15;2.63;;;;;;;-141.23;100.00;62281.09;5037951;28;20128;-78
2023/08/01 09:58:07;;;;;;;8.35;2.35;;;;;;;-141.23;100.00;62281.09;5054820;28;20059;-78
2023/08/01 10:00:33;;;;;;;6.40;2.50;;;;;;;-141.23;100.00;62281.09;5056351;28;20408;-77
2023/08/01 10:03:00;;;;;;;8.23;1.83;;;;;;;-141.23;100.00;62281.09;5024875;28;20098;-76
2023/08/01 10:05:31;;;;;;;7.25;2.10;;;;;;;-141.23;100.00;62281.09;5039442;28;20060;-77
2023/08/01 10:08:02;;;;;;;6.43;2.30;;;;;;;-141.23;100.00;62281.09;5054371;28;20508;-77
2023/08/01 10:10:29;;;;;;;13.30;2.55;;;;;;;-141.23;100.00;62281.09;5037551;28;20441;-77
2023/08/01 10:12:56;;;;;;;13.23;2.95;;;;;;;-141.23;100.00;62281.09;5054173;28;20057;-77
2023/08/01 10:15:24;;;;;;;8.57;2.90;;;;;;;-141.23;100.00;62281.09;5037634;28;20139;-77
2023/08/01 10:17:50;;;;;;;19.35;2.70;;;;;;;-141.23;100.00;62281.09;5037569;28;20045;-76
2023/08/01 10:20:16;;;;;;;4.78;2.17;;;;;;;-141.23;100.00;62281.09;5037536;28;20371;-76
2023/08/01 10:22:44;;;;;;;8.10;2.15;;;;;;;-141.23;100.00;62281.09;5054140;28;20394;-76
2023/08/01 10:25:11;;;;;;;9.75;2.55;;;;;;;-141.23;100.00;62281.09;5037695;28;20099;-76
2023/08/01 10:27:37;;;;;;;9.70;2.75;;;;;;;-141.23;100.00;62281.09;5038036;28;20118;-77
2023/08/01 10:30:04;;;;;;;11.43;2.80;;;;;;;-141.23;100.00;62281.09;5004602;28;20478;-76
2023/08/01 10:32:34;;;;;;;10.30;2.60;;;;;;;-141.23;100.00;62281.09;5054112;28;20049;-75
2023/08/01 10:35:02;;;;;;;7.10;2.47;;;;;;;-141.23;100.00;62281.09;5054895;28;20063;-75
2023/08/01 10:37:40;;;;;;;;;;;;;;;-141.23;100.00;62281.09;5054539;28;20463;-76
2023/08/01 10:40:06;;;;;;;6.45;2.80;;;;;;;-141.23;100.00;62281.09;5037866;28;20018;-75
2023/08/01 10:42:43;;;;;;;7.40;2.40;;;;;;;-141.23;100.00;62281.09;5054125;28;20099;-77
2023/08/01 10:45:23;;;;;;;6.97;2.20;;;;;;;-141.23;100.00;62281.09;5054110;28;20047;-76
2023/08/01 10:47:51;;;;;;;6.85;2.40;;;;;;;-141.23;100.00;62281.09;5021049;28;20048;-75
2023/08/01 10:50:17;;;;;;;8.85;2.25;;;;;;;-141.23;100.00;62281.09;5053705;28;20041;-75
2023/08/01 10:52:43;;;;;;;5.93;2.60;;;;;;;-141.23;100.00;62281.09;5053646;28;20569;-76
2023/08/01 10:55:10;;;;;;;10.20;2.28;;;;;;;-141.23;100.00;62281.09;5021267;28;20075;-76
2023/08/01 10:57:38;;;;;;;10.50;2.83;;;;;;;-141.23;100.00;62281.09;5053804;28;20041;-75
2023/08/01 11:00:09;;;;;;;7.93;2.60;;;;;;;-141.23;100.00;62281.09;5036941;28;20132;-77
2023/08/01 11:02:36;;;;;;;5.85;2.30;;;;;;;-141.23;100.00;62281.09;5021750;28;20080;-76